Marshall, CA (94940)

10:25 PM PDT on September 28, 2016 (GMT -0700)
Hog Island cove - old town Marshall | | Change Station

Elev 12 ft 38.16 °N, 122.89 °W | Updated 3 minutes ago

Overcast
Overcast
53.0 °F
Feels Like 53.0 °F
N
8.0
Wind Variable Wind from South
Gusts 11.0 mph

Today
High -- | Low -- °F
--% Chance of Precip.
Yesterday
High -- | Low -- °F
Precip. -- in
Pressure 29.91 in
Visibility 9.0 miles
Clouds Overcast 400 ft
Dew Point 53 °F
Humidity 99%
Rainfall 0.00 in
Snow Depth Not available.
7:05 AM 6:58 PM
Waning Crescent, 3% visible
METAR KSTS 290453Z AUTO 13006KT 9SM OVC004 12/11 A2993 RMK AO2 SLP129 T01170111
Pressure 29.91 in
Visibility 9.0 miles
Clouds Overcast 400 ft
Dew Point 53 °F
Humidity 99%
Rainfall 0.00 in
Snow Depth Not available.
7:05 AM 6:58 PM
Waning Crescent, 3% visible
METAR KSTS 290453Z AUTO 13006KT 9SM OVC004 12/11 A2993 RMK AO2 SLP129 T01170111

10-Day Weather Forecast

Almanac

Astronomy

Sep. 28, 2016 Rise Set
Actual Time
Civil Twilight
Nautical Twilight
Astronomical Twilight
Moon
Length of Visible Light
Length of Day
Tomorrow will be .
, % of the Moon is Illuminated

Today's Extremes

State Highs State Lows

Community

WunderPhotos

Upload Photos

1,942,445 photos uploaded!

WunderBlog® & News

Nearby

Air Quality

  Air Quality AQ Index Pollutant
Not available.

Snow Depth

Station Depth Elevation

Earthquake Activity

City Distance Mag. Time & Date
Minimum magnitude displayed is 2.5.

Coastal Water Temperatures

Place Temperature

Stations

Nearby Weather Stations

Station Location Temp. Windchill Dew Point Humidity Wind Precip. Elev Updated Type
                   

Watches & Warnings

There are currently no watches in effect.